createdAt,value
2019-04-26T00:00:02.244Z,8.4808
2019-04-26T00:00:12.247Z,8.4808
2019-04-26T00:00:22.240Z,8.4909
2019-04-26T00:00:32.270Z,8.4909
2019-04-26T00:00:42.246Z,8.4909
2019-04-26T00:00:52.209Z,8.4808
2019-04-26T00:01:02.264Z,8.4808
2019-04-26T00:01:12.258Z,8.4909
2019-04-26T00:01:22.218Z,8.4909
2019-04-26T00:01:32.271Z,8.4909
2019-04-26T00:01:42.246Z,8.4909
2019-04-26T00:01:52.257Z,8.4808
2019-04-26T00:02:02.271Z,8.5110
2019-04-26T00:02:12.326Z,8.4909
2019-04-26T00:02:21.259Z,8.4909
2019-04-26T00:02:31.266Z,8.4808
2019-04-26T00:02:44.257Z,8.5110
2019-04-26T00:02:51.243Z,8.5110
2019-04-26T00:03:01.257Z,8.4909
2019-04-26T00:03:14.157Z,8.5110
2019-04-26T00:03:24.246Z,8.4909
2019-04-26T00:03:31.246Z,8.4909
2019-04-26T00:03:41.246Z,8.4808
2019-04-26T00:03:51.245Z,8.5110
2019-04-26T00:04:10.248Z,8.5211
2019-04-26T00:04:14.256Z,8.5110
2019-04-26T00:04:24.257Z,8.5211
2019-04-26T00:04:31.242Z,8.5312
2019-04-26T00:04:41.246Z,8.5312
2019-04-26T00:04:51.251Z,8.5312
2019-04-26T00:05:04.263Z,8.5312
2019-04-26T00:05:12.267Z,8.5513
2019-04-26T00:05:33.961Z,8.5513
2019-04-26T00:05:35.239Z,8.5513
2019-04-26T00:05:43.274Z,8.5614
2019-04-26T00:05:53.253Z,8.5614
2019-04-26T00:06:03.241Z,8.5513
2019-04-26T00:06:14.442Z,8.5513
2019-04-26T00:06:24.263Z,8.5513
2019-04-26T00:06:34.287Z,8.5513
2019-04-26T00:06:44.243Z,8.5312
2019-04-26T00:06:51.242Z,8.5513
2019-04-26T00:07:01.338Z,8.5513
2019-04-26T00:07:14.649Z,8.5614
2019-04-26T00:07:22.246Z,8.5614
2019-04-26T00:07:32.259Z,8.5614
2019-04-26T00:07:42.218Z,8.5513
2019-04-26T00:07:52.253Z,8.5312
2019-04-26T00:08:02.243Z,8.5312
2019-04-26T00:08:12.263Z,8.5211
2019-04-26T00:08:22.247Z,8.5110
2019-04-26T00:08:31.246Z,8.5211
2019-04-26T00:08:44.206Z,8.5110
2019-04-26T00:08:51.241Z,8.5110
2019-04-26T00:09:01.257Z,8.5110
2019-04-26T00:09:14.237Z,8.4909
2019-04-26T00:09:24.264Z,8.5110
2019-04-26T00:09:31.250Z,8.4909
2019-04-26T00:09:41.253Z,8.5110
2019-04-26T00:09:54.252Z,8.5110
2019-04-26T00:10:04.264Z,8.5110
2019-04-26T00:10:11.760Z,8.5211
2019-04-26T00:10:22.367Z,8.5211
2019-04-26T00:10:32.245Z,8.5312
2019-04-26T00:10:42.246Z,8.5110
2019-04-26T00:10:52.280Z,8.5211
2019-04-26T00:11:02.207Z,8.4909
2019-04-26T00:11:12.282Z,8.5110
2019-04-26T00:11:22.412Z,8.5110
2019-04-26T00:11:32.246Z,8.5110
2019-04-26T00:11:42.245Z,8.5110
2019-04-26T00:11:52.252Z,8.4909
2019-04-26T00:12:02.243Z,8.4909
2019-04-26T00:12:12.259Z,8.4808
2019-04-26T00:12:22.666Z,8.4607
2019-04-26T00:12:33.244Z,8.4607
2019-04-26T00:12:43.229Z,8.4607
2019-04-26T00:12:53.250Z,8.4607
2019-04-26T00:13:03.231Z,8.4808
2019-04-26T00:13:13.252Z,8.4808
2019-04-26T00:13:23.237Z,8.4808
2019-04-26T00:13:33.235Z,8.4808
2019-04-26T00:13:43.246Z,8.4808
2019-04-26T00:13:53.243Z,8.4909
2019-04-26T00:14:03.251Z,8.5211
2019-04-26T00:14:14.165Z,8.5110
2019-04-26T00:14:24.259Z,8.5312
2019-04-26T00:14:31.254Z,8.5312
2019-04-26T00:14:41.254Z,8.5513
2019-04-26T00:14:51.249Z,8.5614
2019-04-26T00:15:01.249Z,8.5513
2019-04-26T00:15:12.141Z,8.5614
2019-04-26T00:15:24.268Z,8.5614
2019-04-26T00:15:31.249Z,8.6017
2019-04-26T00:15:44.232Z,8.5815
2019-04-26T00:15:51.246Z,8.5815
2019-04-26T00:16:01.250Z,8.5815
2019-04-26T00:16:12.555Z,8.5815
2019-04-26T00:16:22.250Z,8.5815
2019-04-26T00:16:32.247Z,8.5815
2019-04-26T00:16:42.255Z,8.5815
2019-04-26T00:16:52.239Z,8.5614
2019-04-26T00:17:02.212Z,8.5513
2019-04-26T00:17:12.255Z,8.5312
2019-04-26T00:17:23.246Z,8.5211
2019-04-26T00:17:33.224Z,8.5211
2019-04-26T00:17:43.232Z,8.5211
2019-04-26T00:17:53.240Z,8.5312
2019-04-26T00:18:03.247Z,8.5312
2019-04-26T00:18:13.234Z,8.5312
2019-04-26T00:18:23.250Z,8.5614
2019-04-26T00:18:33.233Z,8.5513
2019-04-26T00:18:43.242Z,8.5513
2019-04-26T00:18:53.201Z,8.5312
2019-04-26T00:19:03.237Z,8.5513
2019-04-26T00:19:12.203Z,8.5614
2019-04-26T00:19:22.338Z,8.5614
2019-04-26T00:19:32.259Z,8.5312
2019-04-26T00:19:42.236Z,8.5614
2019-04-26T00:19:52.248Z,8.5614
2019-04-26T00:20:02.239Z,8.5513
2019-04-26T00:20:12.982Z,8.5312
2019-04-26T00:20:23.243Z,8.5312
2019-04-26T00:20:33.273Z,8.5211
2019-04-26T00:20:43.254Z,8.5211
2019-04-26T00:20:53.233Z,8.5110
2019-04-26T00:21:03.269Z,8.4909
2019-04-26T00:21:14.028Z,8.5110
2019-04-26T00:21:24.219Z,8.5110
2019-04-26T00:21:31.241Z,8.4909
2019-04-26T00:21:44.259Z,8.4808
2019-04-26T00:21:54.247Z,8.4506
2019-04-26T00:22:04.244Z,8.4808
2019-04-26T00:22:12.060Z,8.4607
2019-04-26T00:22:23.237Z,8.4406
2019-04-26T00:22:33.264Z,8.4506
2019-04-26T00:22:43.266Z,8.4406
2019-04-26T00:22:53.237Z,8.4103
2019-04-26T00:23:03.269Z,8.4103
2019-04-26T00:23:14.124Z,8.4103
2019-04-26T00:23:22.432Z,8.4406
2019-04-26T00:23:32.224Z,8.4506
2019-04-26T00:23:42.230Z,8.4506
2019-04-26T00:23:52.248Z,8.4506
2019-04-26T00:24:02.226Z,8.4607
2019-04-26T00:24:13.067Z,8.4506
2019-04-26T00:24:23.239Z,8.4406
2019-04-26T00:24:33.272Z,8.4506
2019-04-26T00:24:43.238Z,8.4607
2019-04-26T00:24:53.270Z,8.4607
2019-04-26T00:25:03.247Z,8.4607
2019-04-26T00:25:13.254Z,8.4607
2019-04-26T00:25:23.268Z,8.4808
2019-04-26T00:25:33.243Z,8.4808
2019-04-26T00:25:43.252Z,8.4808
2019-04-26T00:25:53.231Z,8.5110
2019-04-26T00:26:03.326Z,8.4909
2019-04-26T00:26:13.518Z,8.4909
2019-04-26T00:26:23.255Z,8.5110
2019-04-26T00:26:33.239Z,8.5110
2019-04-26T00:26:43.233Z,8.5110
2019-04-26T00:26:53.255Z,8.5110
2019-04-26T00:27:03.247Z,8.5211
2019-04-26T00:27:13.288Z,8.5211
2019-04-26T00:27:23.225Z,8.5211
2019-04-26T00:27:33.233Z,8.5110
2019-04-26T00:27:42.239Z,8.4808
2019-04-26T00:27:52.256Z,8.4808
2019-04-26T00:28:02.237Z,8.4607
2019-04-26T00:28:12.842Z,8.4607
2019-04-26T00:28:23.233Z,8.4406
2019-04-26T00:28:33.272Z,8.4406
2019-04-26T00:28:42.243Z,8.4406
2019-04-26T00:28:52.247Z,8.4204
2019-04-26T00:29:02.245Z,8.4406
2019-04-26T00:29:12.668Z,8.4406
2019-04-26T00:29:22.217Z,8.4204
2019-04-26T00:29:32.246Z,8.4204
2019-04-26T00:29:42.246Z,8.4406
2019-04-26T00:29:52.246Z,8.4506
2019-04-26T00:30:02.260Z,8.4406
2019-04-26T00:30:13.097Z,8.4506
2019-04-26T00:30:28.227Z,8.4607
2019-04-26T00:30:32.266Z,8.4808
2019-04-26T00:30:42.243Z,8.4808
2019-04-26T00:30:52.253Z,8.4607
2019-04-26T00:31:02.342Z,8.4909
2019-04-26T00:31:12.863Z,8.4909
2019-04-26T00:31:22.287Z,8.5110
2019-04-26T00:31:32.229Z,8.5110
2019-04-26T00:31:42.199Z,8.5110
2019-04-26T00:31:54.248Z,8.5211
2019-04-26T00:32:03.274Z,8.5312
2019-04-26T00:32:13.275Z,8.5211
2019-04-26T00:32:23.271Z,8.5513
2019-04-26T00:32:33.277Z,8.5614
2019-04-26T00:32:43.251Z,8.5513
2019-04-26T00:32:53.210Z,8.5614
2019-04-26T00:33:03.290Z,8.5513
2019-04-26T00:33:13.457Z,8.5513
2019-04-26T00:33:23.274Z,8.5614
2019-04-26T00:33:33.247Z,8.5513
2019-04-26T00:33:43.236Z,8.5614
2019-04-26T00:33:53.259Z,8.5513
2019-04-26T00:34:03.247Z,8.5614
2019-04-26T00:34:13.606Z,8.5614
2019-04-26T00:34:23.253Z,8.5513
2019-04-26T00:34:33.260Z,8.5815
2019-04-26T00:34:43.241Z,8.5614
2019-04-26T00:34:53.247Z,8.5815
2019-04-26T00:35:03.220Z,8.5815
2019-04-26T00:35:14.000Z,8.5815
2019-04-26T00:35:22.157Z,8.6017
2019-04-26T00:35:32.252Z,8.5815
2019-04-26T00:35:47.666Z,8.5815
2019-04-26T00:35:54.244Z,8.5614
2019-04-26T00:36:04.232Z,8.5815
2019-04-26T00:36:13.806Z,8.5815
2019-04-26T00:36:22.869Z,8.6017
2019-04-26T00:36:33.232Z,8.5815
2019-04-26T00:36:43.246Z,8.6319
2019-04-26T00:36:53.247Z,8.6319
2019-04-26T00:37:03.255Z,8.6319
2019-04-26T00:37:14.110Z,8.6319
2019-04-26T00:37:22.434Z,8.6017
2019-04-26T00:37:32.201Z,8.6118
2019-04-26T00:37:42.236Z,8.6017
2019-04-26T00:37:52.239Z,8.6118
2019-04-26T00:38:02.277Z,8.6017
2019-04-26T00:38:13.232Z,8.5815
2019-04-26T00:38:22.321Z,8.5614
2019-04-26T00:38:32.274Z,8.5513
2019-04-26T00:38:44.221Z,8.5513
2019-04-26T00:38:51.239Z,8.5312
2019-04-26T00:39:01.246Z,8.5513
2019-04-26T00:39:11.857Z,8.5614
2019-04-26T00:39:24.185Z,8.5815
2019-04-26T00:39:32.203Z,8.5614
2019-04-26T00:39:42.251Z,8.6017
2019-04-26T00:39:52.226Z,8.6017
2019-04-26T00:40:02.249Z,8.6017
2019-04-26T00:40:13.331Z,8.6118
2019-04-26T00:40:22.370Z,8.6118
2019-04-26T00:40:32.253Z,8.6118
2019-04-26T00:40:42.243Z,8.6319
2019-04-26T00:40:52.255Z,8.6420
2019-04-26T00:41:02.230Z,8.6621
2019-04-26T00:41:12.733Z,8.6722
2019-04-26T00:41:22.664Z,8.6621
2019-04-26T00:41:32.244Z,8.6621
2019-04-26T00:41:42.241Z,8.6722
2019-04-26T00:41:52.257Z,8.6621
2019-04-26T00:42:02.257Z,8.6722
2019-04-26T00:42:13.661Z,8.6722
2019-04-26T00:42:21.251Z,8.6722
2019-04-26T00:42:31.247Z,8.7024
2019-04-26T00:42:41.256Z,8.6923
2019-04-26T00:42:51.241Z,8.7024
2019-04-26T00:43:04.263Z,8.7125
2019-04-26T00:43:12.772Z,8.7125
2019-04-26T00:43:22.668Z,8.7326
2019-04-26T00:43:32.211Z,8.7427
2019-04-26T00:43:42.228Z,8.7125
2019-04-26T00:43:52.249Z,8.7125
2019-04-26T00:44:02.254Z,8.7125
2019-04-26T00:44:13.358Z,8.7024
2019-04-26T00:44:24.235Z,8.6722
2019-04-26T00:44:31.257Z,8.6722
2019-04-26T00:44:41.245Z,8.6621
2019-04-26T00:44:54.249Z,8.6621
2019-04-26T00:45:04.249Z,8.6621
2019-04-26T00:45:11.250Z,8.6722
2019-04-26T00:45:24.223Z,8.6722
2019-04-26T00:45:31.249Z,8.6722
2019-04-26T00:45:44.256Z,8.6923
2019-04-26T00:45:51.247Z,8.7125
2019-04-26T00:46:01.256Z,8.7024
2019-04-26T00:46:11.252Z,8.7125
2019-04-26T00:46:24.247Z,8.7024
2019-04-26T00:46:31.245Z,8.7125
2019-04-26T00:46:41.468Z,8.7125
2019-04-26T00:46:54.256Z,8.7326
2019-04-26T00:47:01.254Z,8.7326
2019-04-26T00:47:11.249Z,8.7326
2019-04-26T00:47:24.266Z,8.7326
2019-04-26T00:47:34.230Z,8.7125
2019-04-26T00:47:44.236Z,8.7125
2019-04-26T00:47:54.248Z,8.7326
2019-04-26T00:48:04.277Z,8.7125
2019-04-26T00:48:11.252Z,8.7326
2019-04-26T00:48:21.250Z,8.7125
2019-04-26T00:48:34.245Z,8.7326
2019-04-26T00:48:41.243Z,8.7326
2019-04-26T00:48:51.244Z,8.7326
2019-04-26T00:49:04.257Z,8.7125
2019-04-26T00:49:11.259Z,8.7326
2019-04-26T00:49:21.317Z,8.7427
2019-04-26T00:49:43.165Z,8.7628
2019-04-26T00:49:44.158Z,8.7830
2019-04-26T00:49:51.239Z,8.7830
2019-04-26T00:50:01.234Z,8.7930
2019-04-26T00:50:11.246Z,8.8132
2019-04-26T00:50:21.326Z,8.8132
2019-04-26T00:50:34.252Z,8.7930
2019-04-26T00:50:41.246Z,8.8132
2019-04-26T00:50:51.242Z,8.7930
2019-04-26T00:51:01.245Z,8.7930
2019-04-26T00:51:15.239Z,8.7628
2019-04-26T00:51:23.390Z,8.7427
2019-04-26T00:51:33.236Z,8.7427
2019-04-26T00:51:43.236Z,8.7125
2019-04-26T00:51:53.234Z,8.7326
2019-04-26T00:52:03.248Z,8.7326
2019-04-26T00:52:14.607Z,8.7326
2019-04-26T00:52:24.243Z,8.7326
2019-04-26T00:52:34.258Z,8.7427
2019-04-26T00:52:41.258Z,8.7326
2019-04-26T00:52:51.304Z,8.7628
2019-04-26T00:53:04.240Z,8.7830
2019-04-26T00:53:11.244Z,8.8132
2019-04-26T00:53:21.808Z,8.8132
2019-04-26T00:53:32.211Z,8.8232
2019-04-26T00:53:42.231Z,8.8232
2019-04-26T00:53:52.237Z,8.8434
2019-04-26T00:54:02.229Z,8.8132
2019-04-26T00:54:14.032Z,8.8232
2019-04-26T00:54:24.434Z,8.7930
2019-04-26T00:54:31.246Z,8.7930
2019-04-26T00:54:44.256Z,8.7930
2019-04-26T00:54:51.247Z,8.7830
2019-04-26T00:55:04.237Z,8.8132
2019-04-26T00:55:14.368Z,8.8132
2019-04-26T00:55:22.233Z,8.8132
2019-04-26T00:55:32.241Z,8.8232
2019-04-26T00:55:42.247Z,8.8132
2019-04-26T00:55:52.254Z,8.8232
2019-04-26T00:56:02.232Z,8.8132
2019-04-26T00:56:12.206Z,8.8232
2019-04-26T00:56:22.316Z,8.8132
2019-04-26T00:56:32.252Z,8.8232
2019-04-26T00:56:42.250Z,8.8232
2019-04-26T00:56:52.227Z,8.8232
2019-04-26T00:57:02.247Z,8.8434
2019-04-26T00:57:12.269Z,8.8232
2019-04-26T00:57:22.426Z,8.8132
2019-04-26T00:57:32.211Z,8.8232
2019-04-26T00:57:42.213Z,8.8132
2019-04-26T00:57:52.238Z,8.8132
2019-04-26T00:58:02.243Z,8.8132
2019-04-26T00:58:12.247Z,8.8232
2019-04-26T00:58:22.382Z,8.8535
2019-04-26T00:58:33.606Z,8.8736
2019-04-26T00:58:43.249Z,8.8837
2019-04-26T00:58:53.238Z,8.9139
2019-04-26T00:59:03.232Z,8.9441
2019-04-26T00:59:14.928Z,8.9542
2019-04-26T00:59:22.622Z,8.9542
2019-04-26T00:59:32.259Z,8.9542
2019-04-26T00:59:47.217Z,8.9441
2019-04-26T00:59:51.246Z,8.9743
2019-04-26T01:00:01.261Z,8.9542
2019-04-26T01:00:11.254Z,8.9441
2019-04-26T01:00:24.253Z,8.9441
2019-04-26T01:00:34.263Z,8.9139
2019-04-26T01:00:44.260Z,8.9240
2019-04-26T01:00:54.247Z,8.9240
2019-04-26T01:01:01.250Z,8.9139
2019-04-26T01:01:11.244Z,8.9240
2019-04-26T01:01:21.243Z,8.9139
2019-04-26T01:01:31.335Z,8.8937
2019-04-26T01:01:44.240Z,8.8937
2019-04-26T01:01:54.242Z,8.8937
2019-04-26T01:02:01.242Z,8.8937
2019-04-26T01:02:11.255Z,8.9240
2019-04-26T01:02:25.178Z,8.9240
2019-04-26T01:02:32.258Z,8.9139
2019-04-26T01:02:42.233Z,8.9441
2019-04-26T01:02:51.244Z,8.9240
2019-04-26T01:03:04.267Z,8.9743
2019-04-26T01:03:11.251Z,8.9944
2019-04-26T01:03:21.256Z,9.0045
2019-04-26T01:03:31.251Z,9.0247
2019-04-26T01:03:41.276Z,9.0448
2019-04-26T01:03:51.264Z,9.0649
2019-04-26T01:04:04.260Z,9.0952
2019-04-26T01:04:11.287Z,9.0952
2019-04-26T01:04:26.244Z,9.1254
2019-04-26T01:04:33.224Z,9.1254
2019-04-26T01:04:43.241Z,9.1052
2019-04-26T01:04:53.231Z,9.1052
2019-04-26T01:05:03.232Z,9.0952
2019-04-26T01:05:13.247Z,9.0952
2019-04-26T01:05:23.256Z,9.0952
2019-04-26T01:05:33.233Z,9.0952
2019-04-26T01:05:42.237Z,9.0952
2019-04-26T01:05:59.862Z,9.0649
2019-04-26T01:06:04.250Z,9.0649
2019-04-26T01:06:14.493Z,9.0649
2019-04-26T01:06:23.247Z,9.0649
2019-04-26T01:06:33.238Z,9.0750
2019-04-26T01:06:43.247Z,9.0347
2019-04-26T01:06:53.241Z,9.0448
2019-04-26T01:07:03.244Z,9.0448
2019-04-26T01:07:13.224Z,9.0448
2019-04-26T01:07:23.324Z,9.0448
2019-04-26T01:07:33.244Z,9.0448
2019-04-26T01:07:43.250Z,9.0649
2019-04-26T01:07:53.211Z,9.0448
2019-04-26T01:08:03.230Z,9.0448
2019-04-26T01:08:13.245Z,9.0347
2019-04-26T01:08:23.475Z,9.0347
2019-04-26T01:08:33.259Z,9.0347
2019-04-26T01:08:43.261Z,9.0347
2019-04-26T01:08:53.236Z,9.0247
2019-04-26T01:09:03.245Z,9.0347
2019-04-26T01:09:13.278Z,9.0247
2019-04-26T01:09:23.714Z,9.0448
2019-04-26T01:09:33.232Z,9.0448
2019-04-26T01:09:43.243Z,9.0649
2019-04-26T01:09:53.259Z,9.0750
2019-04-26T01:10:03.237Z,9.0649
2019-04-26T01:10:13.223Z,9.0750
2019-04-26T01:10:23.781Z,9.0649
2019-04-26T01:10:31.255Z,9.0649
2019-04-26T01:10:41.246Z,9.0952
2019-04-26T01:10:51.229Z,9.0750
2019-04-26T01:11:01.251Z,9.0750
2019-04-26T01:11:11.254Z,9.0750
2019-04-26T01:11:21.759Z,9.0649
2019-04-26T01:11:31.260Z,9.0952
2019-04-26T01:11:44.257Z,9.0952
2019-04-26T01:11:54.243Z,9.0750
2019-04-26T01:12:04.244Z,9.0750
2019-04-26T01:12:11.241Z,9.0649
2019-04-26T01:12:24.258Z,9.0347
2019-04-26T01:12:34.231Z,9.0247
2019-04-26T01:12:41.241Z,9.0247
2019-04-26T01:12:51.245Z,8.9944
2019-04-26T01:13:01.248Z,8.9944
2019-04-26T01:13:11.253Z,8.9944
2019-04-26T01:13:22.038Z,8.9743
2019-04-26T01:13:32.222Z,8.9743
2019-04-26T01:13:42.233Z,8.9743
2019-04-26T01:13:52.250Z,8.9542
2019-04-26T01:14:02.244Z,8.9743
2019-04-26T01:14:12.205Z,8.9743
2019-04-26T01:14:22.237Z,8.9944
2019-04-26T01:14:32.247Z,8.9743
2019-04-26T01:14:42.244Z,8.9743
2019-04-26T01:14:52.246Z,8.9944
2019-04-26T01:15:02.240Z,8.9743
2019-04-26T01:15:12.242Z,8.9743
2019-04-26T01:15:23.244Z,8.9441
2019-04-26T01:15:33.244Z,8.9240
2019-04-26T01:15:43.220Z,8.9240
2019-04-26T01:15:53.320Z,8.9139
2019-04-26T01:16:03.242Z,8.8937
2019-04-26T01:16:13.241Z,8.8937
2019-04-26T01:16:24.269Z,8.8937
2019-04-26T01:16:31.266Z,8.8937
2019-04-26T01:16:41.262Z,8.8937
2019-04-26T01:16:51.248Z,8.8837
2019-04-26T01:17:03.244Z,8.8837
2019-04-26T01:17:13.256Z,8.8837
2019-04-26T01:17:23.245Z,8.8837
2019-04-26T01:17:33.264Z,8.8837
2019-04-26T01:17:43.239Z,8.8837
2019-04-26T01:17:53.262Z,8.9139
2019-04-26T01:18:03.252Z,8.9139
2019-04-26T01:18:13.234Z,8.9139
2019-04-26T01:18:24.355Z,8.8837
2019-04-26T01:18:31.247Z,8.8837
2019-04-26T01:18:41.239Z,8.8736
2019-04-26T01:18:53.254Z,8.8434
2019-04-26T01:19:03.249Z,8.8535
2019-04-26T01:19:13.246Z,8.8232
2019-04-26T01:19:23.246Z,8.8232
2019-04-26T01:19:33.232Z,8.8132
2019-04-26T01:19:43.218Z,8.7830
2019-04-26T01:19:53.273Z,8.7830
2019-04-26T01:20:03.239Z,8.7628
2019-04-26T01:20:13.228Z,8.7930
2019-04-26T01:20:23.234Z,8.7830
2019-04-26T01:20:33.246Z,8.7930
2019-04-26T01:20:43.241Z,8.7830
2019-04-26T01:20:53.264Z,8.7830
2019-04-26T01:21:03.246Z,8.7628
2019-04-26T01:21:13.251Z,8.7628
2019-04-26T01:21:23.246Z,8.7628
2019-04-26T01:21:33.226Z,8.7830
2019-04-26T01:21:43.257Z,8.7830
2019-04-26T01:21:53.251Z,8.7930
2019-04-26T01:22:03.246Z,8.7930
2019-04-26T01:22:13.257Z,8.7930
2019-04-26T01:22:23.402Z,8.7830
2019-04-26T01:22:33.244Z,8.7427
2019-04-26T01:22:43.248Z,8.7628
2019-04-26T01:22:53.203Z,8.7427
2019-04-26T01:23:03.242Z,8.7628
2019-04-26T01:23:13.240Z,8.7830
2019-04-26T01:23:23.241Z,8.7628
2019-04-26T01:23:33.238Z,8.7830
2019-04-26T01:23:43.247Z,8.7628
2019-04-26T01:23:53.241Z,8.7427
2019-04-26T01:24:03.239Z,8.7326
2019-04-26T01:24:13.246Z,8.7125
2019-04-26T01:24:23.148Z,8.7024
2019-04-26T01:24:33.237Z,8.7125
2019-04-26T01:24:43.287Z,8.7024
2019-04-26T01:24:53.246Z,8.7125
2019-04-26T01:25:03.202Z,8.7125
2019-04-26T01:25:13.222Z,8.7326
2019-04-26T01:25:23.246Z,8.7326
2019-04-26T01:25:33.264Z,8.7326
2019-04-26T01:25:43.261Z,8.7427
2019-04-26T01:25:53.236Z,8.7326
2019-04-26T01:26:03.237Z,8.7628
2019-04-26T01:26:13.214Z,8.7628
2019-04-26T01:26:23.314Z,8.7930
2019-04-26T01:26:32.223Z,8.8132
2019-04-26T01:26:42.245Z,8.8232
2019-04-26T01:26:52.243Z,8.8232
2019-04-26T01:27:02.233Z,8.8132
2019-04-26T01:27:12.237Z,8.8132
2019-04-26T01:27:23.334Z,8.7930
2019-04-26T01:27:33.264Z,8.7830
2019-04-26T01:27:43.236Z,8.7427
2019-04-26T01:27:53.222Z,8.7628
2019-04-26T01:28:03.231Z,8.7628
2019-04-26T01:28:13.257Z,8.7628
2019-04-26T01:28:23.394Z,8.7830
2019-04-26T01:28:33.263Z,8.7830
2019-04-26T01:28:43.246Z,8.7628
2019-04-26T01:28:53.269Z,8.7628
2019-04-26T01:29:08.210Z,8.7326
2019-04-26T01:29:12.231Z,8.7427
2019-04-26T01:29:22.244Z,8.7326
2019-04-26T01:29:32.248Z,8.7326
2019-04-26T01:29:42.213Z,8.7326
2019-04-26T01:29:51.246Z,8.7024
2019-04-26T01:30:03.237Z,8.7024
2019-04-26T01:30:13.256Z,8.6722
2019-04-26T01:30:23.824Z,8.6621
2019-04-26T01:30:31.257Z,8.6319
2019-04-26T01:30:44.256Z,8.6319
2019-04-26T01:30:54.218Z,8.6118
2019-04-26T01:31:01.262Z,8.6118
2019-04-26T01:31:14.263Z,8.6118
2019-04-26T01:31:24.270Z,8.6118
2019-04-26T01:31:31.245Z,8.6118
2019-04-26T01:31:43.257Z,8.5614
2019-04-26T01:31:53.257Z,8.5614
2019-04-26T01:32:03.251Z,8.5513
2019-04-26T01:32:13.247Z,8.5513
2019-04-26T01:32:24.084Z,8.5513
2019-04-26T01:32:31.243Z,8.5513
2019-04-26T01:32:44.247Z,8.5815
2019-04-26T01:32:54.268Z,8.6017
2019-04-26T01:33:01.247Z,8.6319
2019-04-26T01:33:14.247Z,8.6420
2019-04-26T01:33:22.237Z,8.6621
2019-04-26T01:33:32.221Z,8.6621
2019-04-26T01:33:42.257Z,8.6923
2019-04-26T01:33:52.261Z,8.6722
2019-04-26T01:34:02.258Z,8.6923
2019-04-26T01:34:12.227Z,8.7024
2019-04-26T01:34:22.240Z,8.6722
2019-04-26T01:34:32.247Z,8.6923
2019-04-26T01:34:42.239Z,8.7024
2019-04-26T01:34:52.212Z,8.7024
2019-04-26T01:35:02.249Z,8.7125
2019-04-26T01:35:12.248Z,8.7125
2019-04-26T01:35:22.226Z,8.7326
2019-04-26T01:35:32.218Z,8.7326
2019-04-26T01:35:42.228Z,8.7628
2019-04-26T01:35:52.250Z,8.7830
2019-04-26T01:36:12.849Z,8.7830
2019-04-26T01:36:13.758Z,8.7830
2019-04-26T01:36:22.249Z,8.7930
2019-04-26T01:36:32.235Z,8.7930
2019-04-26T01:36:42.240Z,8.7930
2019-04-26T01:36:52.250Z,8.7930
2019-04-26T01:37:02.237Z,8.8132
2019-04-26T01:37:12.243Z,8.7930
2019-04-26T01:37:22.538Z,8.7930
2019-04-26T01:37:32.238Z,8.7930
2019-04-26T01:37:42.247Z,8.8132
2019-04-26T01:37:52.239Z,8.7930
2019-04-26T01:38:02.286Z,8.8232
2019-04-26T01:38:12.249Z,8.8434
2019-04-26T01:38:22.237Z,8.8434
2019-04-26T01:38:32.237Z,8.8434
2019-04-26T01:38:42.244Z,8.8736
2019-04-26T01:38:52.226Z,8.8736
2019-04-26T01:39:02.212Z,8.8535
2019-04-26T01:39:12.257Z,8.8434
2019-04-26T01:39:22.441Z,8.8434
2019-04-26T01:39:32.255Z,8.8232
2019-04-26T01:39:42.247Z,8.8232
2019-04-26T01:39:52.206Z,8.8434
2019-04-26T01:40:02.245Z,8.8232
2019-04-26T01:40:12.260Z,8.8132
2019-04-26T01:40:22.247Z,8.8434
2019-04-26T01:40:32.448Z,8.8434
2019-04-26T01:40:42.246Z,8.8736
2019-04-26T01:40:52.219Z,8.8837
2019-04-26T01:41:02.244Z,8.8937
2019-04-26T01:41:12.247Z,8.9240
2019-04-26T01:41:22.389Z,8.9441
2019-04-26T01:41:32.588Z,8.9743
2019-04-26T01:41:42.246Z,8.9743
2019-04-26T01:41:52.262Z,8.9542
2019-04-26T01:42:02.226Z,8.9441
2019-04-26T01:42:12.216Z,8.9441
2019-04-26T01:42:22.365Z,8.9240
2019-04-26T01:42:32.807Z,8.9139
2019-04-26T01:42:42.223Z,8.9240
2019-04-26T01:42:52.215Z,8.8937
2019-04-26T01:43:02.206Z,8.8837
2019-04-26T01:43:12.287Z,8.8837
2019-04-26T01:43:22.718Z,8.9139
2019-04-26T01:43:32.803Z,8.8937
2019-04-26T01:43:43.241Z,8.8736
2019-04-26T01:43:53.233Z,8.8535
2019-04-26T01:44:03.250Z,8.8434
2019-04-26T01:44:13.246Z,8.8434
2019-04-26T01:44:23.239Z,8.8232
2019-04-26T01:44:33.243Z,8.8434
2019-04-26T01:44:43.250Z,8.8434
2019-04-26T01:44:53.247Z,8.8434
2019-04-26T01:45:03.242Z,8.8434
2019-04-26T01:45:13.230Z,8.8434
2019-04-26T01:45:23.650Z,8.8434
2019-04-26T01:45:33.268Z,8.7930
2019-04-26T01:45:43.215Z,8.8132
2019-04-26T01:45:53.246Z,8.7930
2019-04-26T01:46:03.232Z,8.7930
2019-04-26T01:46:13.242Z,8.7930
2019-04-26T01:46:23.290Z,8.8434
2019-04-26T01:46:33.231Z,8.8535
2019-04-26T01:46:43.242Z,8.8434
2019-04-26T01:46:53.276Z,8.8736
2019-04-26T01:47:03.233Z,8.8736
2019-04-26T01:47:13.248Z,8.8535
2019-04-26T01:47:24.142Z,8.8535
2019-04-26T01:47:31.281Z,8.8736
2019-04-26T01:47:44.228Z,8.8535
2019-04-26T01:47:54.237Z,8.8535
2019-04-26T01:48:04.242Z,8.8535
2019-04-26T01:48:11.241Z,8.8232
2019-04-26T01:48:22.079Z,8.8132
2019-04-26T01:48:33.271Z,8.7930
2019-04-26T01:48:43.244Z,8.7830
2019-04-26T01:48:58.248Z,8.7628
2019-04-26T01:49:02.254Z,8.7628
2019-04-26T01:49:12.264Z,8.7628
2019-04-26T01:49:22.405Z,8.7427
2019-04-26T01:49:32.508Z,8.7326
2019-04-26T01:49:42.250Z,8.7326
2019-04-26T01:49:52.260Z,8.7427
2019-04-26T01:50:02.237Z,8.7326
2019-04-26T01:50:12.246Z,8.7427
2019-04-26T01:50:23.485Z,8.7427
2019-04-26T01:50:33.265Z,8.7427
2019-04-26T01:50:43.223Z,8.7628
2019-04-26T01:50:53.243Z,8.7830
2019-04-26T01:51:03.256Z,8.7628
2019-04-26T01:51:13.251Z,8.7427
2019-04-26T01:51:24.447Z,8.7326
2019-04-26T01:51:31.241Z,8.7125
2019-04-26T01:51:44.257Z,8.7326
2019-04-26T01:51:51.254Z,8.7125
2019-04-26T01:52:04.245Z,8.7125
2019-04-26T01:52:11.282Z,8.7125
2019-04-26T01:52:24.237Z,8.7024
2019-04-26T01:52:34.260Z,8.6923
2019-04-26T01:52:41.255Z,8.6923
2019-04-26T01:52:51.250Z,8.6621
2019-04-26T01:53:04.239Z,8.6420
2019-04-26T01:53:14.252Z,8.6118
2019-04-26T01:53:24.629Z,8.6319
2019-04-26T01:53:31.239Z,8.6319
2019-04-26T01:53:44.234Z,8.6118
2019-04-26T01:53:54.251Z,8.5815
2019-04-26T01:54:01.243Z,8.5614
2019-04-26T01:54:11.243Z,8.5614
2019-04-26T01:54:24.259Z,8.5211
2019-04-26T01:54:34.245Z,8.5110
2019-04-26T01:54:41.266Z,8.5211
2019-04-26T01:54:51.244Z,8.5211
2019-04-26T01:55:01.247Z,8.5211
2019-04-26T01:55:14.250Z,8.5110
2019-04-26T01:55:24.850Z,8.4909
2019-04-26T01:55:32.238Z,8.4909
2019-04-26T01:55:42.247Z,8.5110
2019-04-26T01:55:52.261Z,8.5110
2019-04-26T01:56:02.243Z,8.4909
2019-04-26T01:56:12.204Z,8.4909
2019-04-26T01:56:23.431Z,8.4909
2019-04-26T01:56:33.241Z,8.4909
2019-04-26T01:56:43.239Z,8.5110
2019-04-26T01:56:53.250Z,8.5211
2019-04-26T01:57:03.265Z,8.5513
2019-04-26T01:57:13.253Z,8.5614
2019-04-26T01:57:23.718Z,8.5815
2019-04-26T01:57:33.210Z,8.6017
2019-04-26T01:57:42.246Z,8.6017
2019-04-26T01:57:52.258Z,8.6319
2019-04-26T01:58:02.248Z,8.6420
2019-04-26T01:58:12.254Z,8.6420
2019-04-26T01:58:23.197Z,8.6420
2019-04-26T01:58:33.252Z,8.6319
2019-04-26T01:58:43.219Z,8.6319
2019-04-26T01:58:53.251Z,8.6319
2019-04-26T01:59:03.278Z,8.6118
2019-04-26T01:59:13.211Z,8.6118
2019-04-26T01:59:23.675Z,8.5815
2019-04-26T01:59:33.271Z,8.5815
2019-04-26T01:59:43.249Z,8.5614
2019-04-26T01:59:53.261Z,8.5614
2019-04-26T02:00:03.250Z,8.5614
2019-04-26T02:00:13.237Z,8.5614
2019-04-26T02:00:23.935Z,8.5815
2019-04-26T02:00:31.746Z,8.5614
2019-04-26T02:00:42.233Z,8.6017
2019-04-26T02:00:52.240Z,8.5815
2019-04-26T02:01:02.233Z,8.6017
2019-04-26T02:01:12.226Z,8.6017
2019-04-26T02:01:23.414Z,8.6017
2019-04-26T02:01:33.246Z,8.5815
2019-04-26T02:01:43.251Z,8.6017
2019-04-26T02:01:53.256Z,8.5614
2019-04-26T02:02:03.238Z,8.5815
2019-04-26T02:02:13.241Z,8.5614
2019-04-26T02:02:23.744Z,8.5815
2019-04-26T02:02:34.244Z,8.5614
2019-04-26T02:02:41.243Z,8.5815
2019-04-26T02:02:54.257Z,8.6017
2019-04-26T02:03:01.242Z,8.6118
2019-04-26T02:03:11.241Z,8.6420
2019-04-26T02:03:21.533Z,8.6420
2019-04-26T02:03:32.256Z,8.6621
2019-04-26T02:03:42.239Z,8.6722
2019-04-26T02:03:52.266Z,8.7024
2019-04-26T02:04:02.244Z,8.6923
2019-04-26T02:04:12.235Z,8.6722
2019-04-26T02:04:22.908Z,8.6621
2019-04-26T02:04:31.998Z,8.6722
2019-04-26T02:04:42.257Z,8.6420